»·PEaware :: N112PC KHLN-KBTF

N112PC :: KHLN-KBTF

FLIGHT INFORMATION

Flight Status: Arrived
Operator: Privately registered:
United States
More flights under this callsign
Pilot: Gabor H. (24209)
Aircraft: PILATUS PC-12 EAGLE
(PC12)
More flights by this aircraft type
Origin: KHLN Helena Regl
United States
Destination: KBTF Skypark
United States
More flights between these airports :: More routes between these airports
Route: +STAKK4 BZN OGD
File this flight plan on PilotEdge
Remarks:
Altitude:
(Current/Filed)
27,000ft
Speed:
(Current/Filed)
260kts
Departed: 06-Jun-19 07:20 AM
Arrived: 06-Jun-19 08:58 AM
Distance/Time
Traveled:
344nm/1:38
Distance/Time
To Go:
Arrived

Flight Plot

Page will automatically refresh every two minutes.

Flight plan parsing failed; only flown route is shown


Map Options




Map Legend


Flown Route
Filed Route
Departure Airport
Arrival Airport
Navaid (VOR, NDB)
Fix

Horizontal Profiles

Position Reports

Time Latitude Longitude Heading Altitude Ground
Speed
06-Jun-19 07:04 46.602625 -111.995791 0 3880ft 0kts
06-Jun-19 07:05 46.602625 -111.995791 270 3880ft 0kts
06-Jun-19 07:06 46.602625 -111.995791 270 3880ft 0kts
06-Jun-19 07:07 46.602625 -111.995791 270 3880ft 0kts
06-Jun-19 07:08 46.602625 -111.995791 270 3880ft 0kts
06-Jun-19 07:09 46.602625 -111.995791 270 3880ft 0kts
06-Jun-19 07:10 46.602625 -111.995791 270 3880ft 0kts
06-Jun-19 07:11 46.602625 -111.995791 270 3880ft 0kts
06-Jun-19 07:12 46.602626 -111.995835 270 3880ft 0kts
06-Jun-19 07:13 46.602852 -111.995965 2 3880ft 8kts
06-Jun-19 07:14 46.603409 -111.987936 87 3880ft 26kts
06-Jun-19 07:15 46.603634 -111.978658 98 3880ft 25kts
06-Jun-19 07:16 46.602433 -111.967783 104 3880ft 16kts
06-Jun-19 07:17 46.602110 -111.963533 45 3880ft 0kts
06-Jun-19 07:18 46.602923 -111.963177 337 3880ft 8kts
06-Jun-19 07:19 46.607641 -111.996831 279 4625ft 136kts
06-Jun-19 07:20 46.636799 -112.003050 70 6157ft 165kts
06-Jun-19 07:21 46.614450 -111.946656 122 7684ft 170kts
06-Jun-19 07:22 46.596485 -111.882095 107 9200ft 175kts
06-Jun-19 07:23 46.584001 -111.810620 108 10723ft 197kts
06-Jun-19 07:24 46.570581 -111.729391 109 12253ft 218kts
06-Jun-19 07:25 46.555487 -111.643151 126 13489ft 216kts
06-Jun-19 07:26 46.505530 -111.626036 184 15014ft 201kts
06-Jun-19 07:27 46.458357 -111.571028 135 16527ft 237kts
06-Jun-19 07:28 46.404405 -111.520818 165 18041ft 232kts
06-Jun-19 07:29 46.345255 -111.483889 167 19540ft 230kts
06-Jun-19 07:30 46.286518 -111.448905 168 21036ft 226kts
06-Jun-19 07:31 46.229070 -111.415032 168 22530ft 220kts
06-Jun-19 07:32 46.173103 -111.382152 169 24026ft 213kts
06-Jun-19 07:33 46.117491 -111.349747 169 25147ft 219kts
06-Jun-19 07:34 46.061677 -111.317155 169 26127ft 222kts
06-Jun-19 07:35 46.004082 -111.283635 169 26885ft 230kts
06-Jun-19 07:36 45.941498 -111.247469 167 26895ft 250kts
06-Jun-19 07:37 45.876061 -111.209328 167 26891ft 256kts
06-Jun-19 07:38 45.809844 -111.170851 169 26890ft 256kts
06-Jun-19 07:39 45.742421 -111.168397 193 26891ft 239kts
06-Jun-19 07:40 45.676565 -111.180744 195 26892ft 238kts
06-Jun-19 07:41 45.611009 -111.194783 196 26896ft 238kts
06-Jun-19 07:42 45.545562 -111.209169 196 26904ft 238kts
06-Jun-19 07:43 45.480139 -111.223615 196 26914ft 238kts
06-Jun-19 07:44 45.414748 -111.238043 196 26931ft 238kts
06-Jun-19 07:45 45.349383 -111.252440 196 26946ft 237kts
06-Jun-19 07:46 45.283977 -111.266814 196 26964ft 237kts
06-Jun-19 07:47 45.218618 -111.281149 196 26987ft 238kts
06-Jun-19 07:48 45.152958 -111.295508 196 27008ft 238kts
06-Jun-19 07:49 45.087557 -111.309779 196 27027ft 238kts
06-Jun-19 07:50 45.022144 -111.324032 196 27043ft 238kts
06-Jun-19 07:51 44.958153 -111.337931 196 27054ft 238kts
06-Jun-19 07:52 44.892457 -111.352174 196 27067ft 239kts
06-Jun-19 07:53 44.826473 -111.366445 196 27077ft 239kts
06-Jun-19 07:54 44.760606 -111.380664 196 27083ft 240kts
06-Jun-19 07:55 44.694592 -111.394872 196 27085ft 240kts
06-Jun-19 07:56 44.628466 -111.409073 196 27092ft 240kts
06-Jun-19 07:57 44.562287 -111.423256 196 27090ft 241kts
06-Jun-19 07:58 44.496012 -111.437424 196 27088ft 241kts
06-Jun-19 07:59 44.429512 -111.451613 195 27084ft 241kts
06-Jun-19 08:00 44.363303 -111.465703 195 27081ft 241kts
06-Jun-19 08:01 44.296631 -111.479856 195 27077ft 241kts
06-Jun-19 08:02 44.230113 -111.493945 195 27073ft 241kts
06-Jun-19 08:03 44.163664 -111.507989 195 27069ft 242kts
06-Jun-19 08:04 44.097070 -111.522037 195 27065ft 242kts
06-Jun-19 08:05 44.030132 -111.536119 195 27060ft 243kts
06-Jun-19 08:06 43.963200 -111.550176 195 27055ft 244kts
06-Jun-19 08:07 43.896029 -111.564281 195 27049ft 244kts
06-Jun-19 08:08 43.828754 -111.578327 195 27054ft 245kts
06-Jun-19 08:09 43.761365 -111.592162 195 27051ft 245kts
06-Jun-19 08:10 43.694007 -111.606352 195 27041ft 245kts
06-Jun-19 08:11 43.626370 -111.620405 195 27029ft 245kts
06-Jun-19 08:12 43.558935 -111.634358 195 27034ft 245kts
06-Jun-19 08:13 43.491304 -111.648328 195 27044ft 245kts
06-Jun-19 08:14 43.423937 -111.662213 195 27052ft 245kts
06-Jun-19 08:15 43.356475 -111.676097 195 27050ft 245kts
06-Jun-19 08:16 43.288886 -111.689964 195 27052ft 245kts
06-Jun-19 08:17 43.221286 -111.703802 195 27054ft 246kts
06-Jun-19 08:18 43.153612 -111.717632 195 27057ft 246kts
06-Jun-19 08:19 43.085491 -111.731518 195 27060ft 247kts
06-Jun-19 08:20 43.017564 -111.745333 195 27062ft 247kts
06-Jun-19 08:21 42.949470 -111.759156 195 27064ft 248kts
06-Jun-19 08:22 42.881315 -111.772950 195 27083ft 247kts
06-Jun-19 08:23 42.813258 -111.786692 195 27092ft 247kts
06-Jun-19 08:24 42.744896 -111.800470 195 27093ft 247kts
06-Jun-19 08:25 42.676528 -111.814231 194 27074ft 249kts
06-Jun-19 08:26 42.607975 -111.827985 194 27074ft 249kts
06-Jun-19 08:27 42.539407 -111.841710 194 27075ft 249kts
06-Jun-19 08:28 42.470803 -111.855419 194 27071ft 249kts
06-Jun-19 08:29 42.402017 -111.869128 194 27060ft 250kts
06-Jun-19 08:30 42.331364 -111.883345 194 26262ft 269kts
06-Jun-19 08:31 42.256221 -111.898351 193 24762ft 273kts
06-Jun-19 08:32 42.182777 -111.912755 193 24058ft 259kts
06-Jun-19 08:33 42.109684 -111.927222 192 22923ft 270kts
06-Jun-19 08:34 42.036025 -111.941700 192 21425ft 266kts
06-Jun-19 08:35 41.961830 -111.956309 192 19923ft 270kts
06-Jun-19 08:37 41.887738 -111.970825 192 18424ft 268kts
06-Jun-19 08:38 41.814622 -111.985086 191 16923ft 263kts
06-Jun-19 08:39 41.743080 -111.998967 191 16059ft 253kts
06-Jun-19 08:40 41.673448 -112.012385 191 16067ft 255kts
06-Jun-19 08:41 41.602214 -112.026292 191 16054ft 258kts
06-Jun-19 08:42 41.530973 -112.040242 191 16042ft 260kts
06-Jun-19 08:43 41.458403 -112.054143 191 14626ft 255kts
06-Jun-19 08:44 41.393205 -112.066471 192 13837ft 227kts
06-Jun-19 08:45 41.332105 -112.086023 199 12347ft 221kts
06-Jun-19 08:46 41.281221 -112.131346 220 9693ft 221kts
06-Jun-19 08:47 41.238206 -112.182577 187 7151ft 206kts
06-Jun-19 08:48 41.184534 -112.180305 167 5535ft 175kts
06-Jun-19 08:49 41.138563 -112.165693 161 5506ft 172kts
06-Jun-19 08:50 41.095281 -112.136094 146 5501ft 177kts
06-Jun-19 08:51 41.057826 -112.092984 129 5516ft 179kts
06-Jun-19 08:52 41.033138 -112.036091 105 5516ft 171kts
06-Jun-19 08:53 41.021966 -111.975248 99 5509ft 171kts
06-Jun-19 08:54 40.993349 -111.928237 145 5513ft 166kts
06-Jun-19 08:55 40.950018 -111.927462 187 5545ft 155kts
06-Jun-19 08:56 40.912154 -111.929715 171 5069ft 106kts
06-Jun-19 08:57 40.886296 -111.927665 178 4587ft 85kts
06-Jun-19 08:58 40.869145 -111.927479 179 4237ft 9kts
06-Jun-19 08:58 40.868045 -111.928568 268 4237ft 5kts

Navigation Log

Ident Type
Flight plan parsing failed, navigation log unavailable